Time;durP1;ratioP1;P1;durP2;ratioP2;P2;SDS_P1;SDS_P2;PMS_P1;PMS_P2;Temp;Humidity;BMP_temperature;BMP_pressure;BME280_temperature;BME280_humidity;BME280_pressure;Samples;Min_cycle;Max_cycle;Signal;HPM_P1;HPM_P2
2024/04/15 16:39:40;;;;;;;16.15;7.45;;;;;;;25.33;28.74;93104.13;3689265;26;20086;-44
2024/04/15 16:42:08;;;;;;;6.47;2.53;;;;;;;25.12;30.04;93116.06;3674419;32;20105;-42
2024/04/15 16:44:35;;;;;;;13.90;5.13;;;;;;;25.10;29.59;93104.72;3635626;32;20106;-41
2024/04/15 16:47:03;;;;;;;20.63;10.65;;;;;;;25.09;29.85;93105.06;3639018;32;20078;-42
2024/04/15 16:49:34;;;;;;;8.52;2.60;;;;;;;24.61;29.97;93094.91;3659577;32;20126;-44
2024/04/15 16:52:02;;;;;;;15.10;3.25;;;;;;;24.33;30.14;93094.09;3677309;32;20121;-42
2024/04/15 16:54:31;;;;;;;6.28;2.55;;;;;;;24.42;29.80;93097.47;3651772;32;20147;-42
2024/04/15 16:56:59;;;;;;;22.33;3.72;;;;;;;24.59;30.80;93099.13;3656796;32;20126;-42
2024/04/15 16:59:26;;;;;;;15.52;3.42;;;;;;;24.64;30.72;93094.22;3665112;32;20130;-42
2024/04/15 17:01:54;;;;;;;14.18;3.42;;;;;;;24.42;32.63;93109.13;3675413;32;20146;-42
2024/04/15 17:04:22;;;;;;;7.57;2.80;;;;;;;24.53;32.78;93112.19;3685946;32;20141;-43
2024/04/15 17:06:51;;;;;;;7.22;3.17;;;;;;;24.50;32.48;93118.34;3651968;32;20134;-42
2024/04/15 17:09:19;;;;;;;17.45;3.10;;;;;;;24.32;33.18;93119.75;3619578;32;20123;-44
2024/04/15 17:11:50;;;;;;;6.78;3.28;;;;;;;24.33;32.39;93118.63;3626750;32;20150;-42
2024/04/15 17:14:18;;;;;;;7.20;3.08;;;;;;;24.32;32.54;93109.63;3661328;32;20587;-42
2024/04/15 17:16:46;;;;;;;10.60;5.20;;;;;;;24.28;33.26;93111.47;3651898;32;20134;-43
2024/04/15 17:19:13;;;;;;;9.35;3.72;;;;;;;24.26;33.53;93111.03;3678307;32;20134;-42
2024/04/15 17:21:41;;;;;;;15.40;7.53;;;;;;;24.09;34.64;93117.56;3647194;32;20138;-43
2024/04/15 17:24:09;;;;;;;11.90;7.03;;;;;;;24.11;34.49;93123.44;3670049;32;20222;-42
2024/04/15 17:26:37;;;;;;;12.15;6.45;;;;;;;24.08;34.72;93121.41;3627006;32;20162;-43
2024/04/15 17:29:04;;;;;;;19.88;7.07;;;;;;;23.93;35.88;93108.50;3674152;32;20142;-43
2024/04/15 17:31:32;;;;;;;16.27;6.40;;;;;;;23.44;36.17;93112.84;3619160;32;20126;-43
2024/04/15 17:34:00;;;;;;;8.90;3.95;;;;;;;23.12;36.59;93117.25;3652685;32;20114;-43
2024/04/15 17:36:27;;;;;;;10.45;4.32;;;;;;;23.11;37.38;93099.38;3663317;32;20133;-44
2024/04/15 17:38:55;;;;;;;15.00;5.00;;;;;;;22.88;37.42;93112.56;3634266;32;20126;-43
2024/04/15 17:41:23;;;;;;;11.75;4.10;;;;;;;22.90;37.39;93107.59;3672047;32;20118;-42
2024/04/15 17:43:51;;;;;;;9.07;3.78;;;;;;;22.89;36.89;93108.69;3626389;32;20075;-43
2024/04/15 17:46:19;;;;;;;17.58;4.50;;;;;;;22.84;38.22;93106.22;3638562;32;20572;-42
2024/04/15 17:48:46;;;;;;;9.93;4.07;;;;;;;22.81;37.53;93102.25;3629602;32;20138;-43
2024/04/15 17:51:17;;;;;;;9.85;3.60;;;;;;;22.31;39.75;93116.00;3608500;32;20171;-42
2024/04/15 17:53:44;;;;;;;10.38;3.42;;;;;;;22.22;40.31;93116.06;3674323;32;20201;-43
2024/04/15 17:56:12;;;;;;;17.58;7.50;;;;;;;22.16;39.81;93122.81;3684384;32;20138;-43
2024/04/15 17:58:39;;;;;;;27.02;12.23;;;;;;;22.06;40.24;93120.50;3694697;32;20131;-42
2024/04/15 18:01:07;;;;;;;18.85;6.28;;;;;;;22.10;39.87;93124.94;3662148;32;20480;-43
2024/04/15 18:03:34;;;;;;;11.70;5.28;;;;;;;21.99;40.01;93132.66;3670232;32;20126;-42
2024/04/15 18:06:02;;;;;;;11.68;5.90;;;;;;;22.02;39.93;93129.31;3644456;32;20151;-43
2024/04/15 18:08:30;;;;;;;13.50;5.20;;;;;;;21.84;41.15;93114.28;3693786;32;20137;-42
2024/04/15 18:10:57;;;;;;;21.90;10.27;;;;;;;21.55;40.34;93098.84;3621668;32;20193;-42
2024/04/15 18:13:24;;;;;;;21.80;7.50;;;;;;;21.50;39.30;93107.97;3631503;32;20118;-42
2024/04/15 18:15:53;;;;;;;12.60;5.25;;;;;;;21.36;40.84;93124.44;3639982;32;20139;-44
2024/04/15 18:18:20;;;;;;;7.25;3.42;;;;;;;21.00;37.88;93120.31;3652326;32;20143;-43
2024/04/15 18:20:48;;;;;;;11.10;3.17;;;;;;;21.07;39.29;93103.53;3617415;32;20154;-43
2024/04/15 18:23:15;;;;;;;4.70;2.00;;;;;;;21.08;36.78;93109.75;3595607;32;20138;-42
2024/04/15 18:25:43;;;;;;;4.82;2.42;;;;;;;21.14;37.29;93116.56;3684070;32;20134;-43
2024/04/15 18:28:10;;;;;;;7.20;2.13;;;;;;;21.26;37.79;93124.81;3650806;32;20139;-42
2024/04/15 18:30:38;;;;;;;6.38;2.88;;;;;;;21.40;37.77;93127.28;3652008;32;20122;-42
2024/04/15 18:33:06;;;;;;;6.72;3.28;;;;;;;21.57;37.54;93137.25;3671957;32;20548;-43
2024/04/15 18:35:34;;;;;;;6.45;2.88;;;;;;;21.68;37.70;93137.69;3682650;32;20173;-43
2024/04/15 18:38:02;;;;;;;6.00;2.65;;;;;;;21.72;38.39;93142.13;3689798;32;20145;-42
2024/04/15 18:40:30;;;;;;;7.88;4.40;;;;;;;21.71;38.78;93143.25;3647540;32;20522;-43
2024/04/15 18:42:59;;;;;;;12.30;8.35;;;;;;;21.63;38.94;93132.44;3665927;32;20161;-43
2024/04/15 18:45:27;;;;;;;11.27;6.07;;;;;;;21.60;39.46;93123.06;3667306;32;20158;-43
2024/04/15 18:47:55;;;;;;;9.82;5.40;;;;;;;21.46;39.15;93138.75;3634241;32;20141;-44
2024/04/15 18:50:24;;;;;;;8.40;5.07;;;;;;;21.46;40.33;93136.84;3687626;32;20138;-43
2024/04/15 18:52:51;;;;;;;7.90;4.65;;;;;;;21.38;40.28;93143.09;3641415;32;20134;-43
2024/04/15 18:55:19;;;;;;;10.25;4.80;;;;;;;21.17;40.78;93138.41;3658673;32;20134;-43
2024/04/15 18:57:47;;;;;;;8.00;4.88;;;;;;;21.16;40.64;93134.09;3667875;32;20488;-43
2024/04/15 19:00:15;;;;;;;10.90;4.38;;;;;;;21.07;41.70;93125.22;3669216;32;20575;-43
2024/04/15 19:02:43;;;;;;;7.88;3.70;;;;;;;20.81;41.87;93141.56;3687849;32;20476;-42
2024/04/15 19:05:10;;;;;;;8.13;4.40;;;;;;;20.86;42.65;93141.38;3699084;32;20131;-43
2024/04/15 19:07:38;;;;;;;7.45;4.80;;;;;;;20.83;42.67;93147.44;3667013;32;20138;-47
2024/04/15 19:10:07;;;;;;;13.77;6.93;;;;;;;20.74;43.02;93142.06;3676869;32;20130;-43
2024/04/15 19:12:35;;;;;;;8.68;3.47;;;;;;;20.67;42.87;93143.66;3645301;32;20568;-43
2024/04/15 19:15:03;;;;;;;7.90;3.92;;;;;;;19.92;45.02;93150.06;3645169;32;20463;-44
2024/04/15 19:17:31;;;;;;;10.38;5.22;;;;;;;19.97;45.29;93152.63;3653297;32;20146;-42
2024/04/15 19:19:59;;;;;;;14.02;5.22;;;;;;;19.98;45.20;93145.28;3652251;32;20186;-43
2024/04/15 19:22:26;;;;;;;9.90;4.13;;;;;;;19.62;45.37;93159.06;3638491;32;20126;-43
2024/04/15 19:24:54;;;;;;;12.80;6.18;;;;;;;19.75;45.63;93150.03;3683853;32;20135;-44
2024/04/15 19:27:22;;;;;;;8.05;4.07;;;;;;;19.84;45.77;93150.84;3650571;32;20575;-46
2024/04/15 19:29:51;;;;;;;8.63;3.90;;;;;;;19.86;45.85;93148.63;3607622;32;20126;-42
2024/04/15 19:32:19;;;;;;;8.70;3.85;;;;;;;19.86;44.99;93148.63;3618071;32;20575;-43
2024/04/15 19:34:47;;;;;;;7.97;4.15;;;;;;;19.76;45.70;93136.22;3621667;32;20209;-53
2024/04/15 19:37:15;;;;;;;8.32;3.65;;;;;;;19.73;45.98;93134.13;3678663;32;20118;-53
2024/04/15 19:39:44;;;;;;;7.45;3.35;;;;;;;19.67;46.23;93123.75;3645534;32;20134;-51
2024/04/15 19:42:12;;;;;;;15.18;5.68;;;;;;;19.60;45.83;93137.75;3650939;32;20123;-46
2024/04/15 19:44:39;;;;;;;9.27;4.18;;;;;;;19.55;47.00;93141.41;3667120;32;20134;-45
2024/04/15 19:47:07;;;;;;;8.68;4.38;;;;;;;19.58;47.21;93137.25;3674851;32;20486;-44
2024/04/15 19:49:34;;;;;;;9.98;4.32;;;;;;;19.50;47.15;93133.44;3609870;32;20627;-45
2024/04/15 19:52:02;;;;;;;11.02;4.47;;;;;;;19.32;46.27;93137.22;3629700;32;20454;-44
2024/04/15 19:54:29;;;;;;;13.90;6.72;;;;;;;19.40;46.52;93131.03;3649764;32;20134;-44
2024/04/15 19:56:56;;;;;;;9.25;5.07;;;;;;;19.27;47.14;93148.97;3625516;32;20134;-45
2024/04/15 19:59:24;;;;;;;13.60;5.15;;;;;;;19.16;47.32;93142.22;3684590;32;20142;-47
2024/04/15 20:01:51;;;;;;;8.15;4.55;;;;;;;19.06;46.91;93135.22;3606539;32;20133;-47
2024/04/15 20:04:18;;;;;;;31.73;9.23;;;;;;;18.82;48.93;93135.59;3665304;32;20599;-47
2024/04/15 20:06:45;;;;;;;18.58;6.95;;;;;;;18.77;48.93;93139.19;3676298;32;20147;-42
2024/04/15 20:09:13;;;;;;;24.83;8.25;;;;;;;18.82;49.01;93134.78;3646531;32;20132;-43
2024/04/15 20:11:40;;;;;;;17.13;7.78;;;;;;;18.71;50.02;93136.94;3602491;39;20603;-44
2024/04/15 20:14:07;;;;;;;12.32;5.43;;;;;;;18.80;49.19;93131.59;3621411;32;20131;-44
2024/04/15 20:16:34;;;;;;;14.70;5.68;;;;;;;18.34;50.50;93133.56;3605812;32;20134;-47
2024/04/15 20:19:03;;;;;;;12.85;5.10;;;;;;;18.46;50.43;93123.00;3651822;32;20131;-44
2024/04/15 20:21:30;;;;;;;;;;;;;;;18.54;50.68;93124.13;3657580;32;20134;-43
2024/04/15 20:23:57;;;;;;;;;;;;;;;18.58;50.66;93122.41;3650474;32;20011;-46
2024/04/15 20:26:24;;;;;;;13.55;5.80;;;;;;;18.53;50.02;93115.25;3641610;32;20015;-43
2024/04/15 20:28:52;;;;;;;11.95;4.70;;;;;;;18.50;50.59;93118.59;3641342;32;20592;-43
2024/04/15 20:31:19;;;;;;;10.30;5.05;;;;;;;18.60;50.58;93125.59;3660412;32;20138;-44
2024/04/15 20:33:46;;;;;;;8.00;4.57;;;;;;;18.56;50.13;93108.44;3604050;32;20135;-42
2024/04/15 20:36:13;;;;;;;8.35;4.20;;;;;;;18.50;49.51;93115.09;3645686;32;20567;-44
2024/04/15 20:38:43;;;;;;;10.90;4.65;;;;;;;18.42;50.56;93105.84;3644043;32;20495;-42
2024/04/15 20:41:10;;;;;;;8.00;4.18;;;;;;;18.46;49.81;93114.13;3649851;32;20135;-44
2024/04/15 20:43:38;;;;;;;11.27;3.95;;;;;;;18.31;51.01;93113.41;3670438;32;20147;-47
2024/04/15 20:46:07;;;;;;;13.55;4.63;;;;;;;18.22;50.40;93109.84;3646473;32;20186;-42
2024/04/15 20:48:34;;;;;;;12.05;6.05;;;;;;;18.10;51.65;93099.59;3605248;32;20539;-48
2024/04/15 20:51:02;;;;;;;10.63;4.53;;;;;;;18.16;51.59;93103.78;3651311;32;20461;-43
2024/04/15 20:53:29;;;;;;;12.02;6.35;;;;;;;18.20;51.84;93101.28;3602524;39;20507;-46
2024/04/15 20:55:58;;;;;;;8.48;3.97;;;;;;;18.22;51.45;93109.03;3635919;32;20153;-45
2024/04/15 20:58:25;;;;;;;9.80;4.53;;;;;;;18.20;51.06;93095.88;3680168;32;20133;-42
2024/04/15 21:00:53;;;;;;;7.65;3.60;;;;;;;18.14;50.66;93099.81;3691736;32;20130;-44
2024/04/15 21:03:21;;;;;;;8.15;3.20;;;;;;;17.93;51.75;93102.19;3660086;32;20126;-43
2024/04/15 21:05:48;;;;;;;7.95;4.22;;;;;;;17.99;51.26;93083.97;3657334;32;20134;-43
2024/04/15 21:08:15;;;;;;;9.10;4.25;;;;;;;17.94;52.18;93101.06;3677489;32;20142;-42
2024/04/15 21:10:42;;;;;;;9.68;3.55;;;;;;;17.84;53.02;93077.88;3602378;39;20142;-43
2024/04/15 21:13:09;;;;;;;12.55;5.43;;;;;;;17.63;52.78;93088.28;3656128;32;20487;-47
2024/04/15 21:15:37;;;;;;;9.02;5.05;;;;;;;17.78;52.70;93080.97;3650565;32;20130;-44
2024/04/15 21:18:04;;;;;;;9.07;3.97;;;;;;;17.78;51.99;93065.56;3603957;32;20134;-43
2024/04/15 21:20:31;;;;;;;9.25;3.83;;;;;;;17.72;53.06;93053.31;3634696;32;20143;-43
2024/04/15 21:22:58;;;;;;;10.65;5.05;;;;;;;17.51;53.00;93075.34;3639674;32;20138;-44
2024/04/15 21:25:25;;;;;;;13.02;6.07;;;;;;;17.57;53.38;93045.59;3623249;32;20138;-44
2024/04/15 21:27:55;;;;;;;9.52;5.75;;;;;;;16.93;55.27;93070.66;3646838;32;20242;-44
2024/04/15 21:30:22;;;;;;;11.70;6.20;;;;;;;17.01;55.50;93051.13;3627966;32;20471;-44
2024/04/15 21:32:49;;;;;;;8.63;3.35;;;;;;;17.06;54.67;93058.28;3659439;32;20143;-45
2024/04/15 21:35:19;;;;;;;10.75;3.92;;;;;;;16.98;54.99;93070.56;3603309;32;20134;-47
2024/04/15 21:37:46;;;;;;;8.23;4.22;;;;;;;17.04;54.87;93072.03;3673444;32;20146;-53
2024/04/15 21:40:13;;;;;;;6.43;3.22;;;;;;;17.09;54.38;93069.25;3646768;32;20149;-44
2024/04/15 21:42:41;;;;;;;8.90;4.30;;;;;;;17.04;54.46;93061.28;3633708;32;20479;-44
2024/04/15 21:45:09;;;;;;;8.00;3.95;;;;;;;17.14;54.27;93071.03;3657447;32;20161;-44
2024/04/15 21:47:36;;;;;;;7.28;3.22;;;;;;;17.20;53.66;93072.53;3630586;32;20130;-43
2024/04/15 21:50:04;;;;;;;6.15;3.40;;;;;;;17.18;53.84;93063.97;3648348;32;20117;-43
2024/04/15 21:52:31;;;;;;;6.88;3.25;;;;;;;17.02;53.92;93057.28;3657842;32;20141;-43
2024/04/15 21:54:59;;;;;;;8.57;4.13;;;;;;;17.10;54.14;93053.91;3670519;32;20575;-44
2024/04/15 21:57:26;;;;;;;7.78;3.72;;;;;;;17.10;54.68;93049.31;3587011;39;20130;-44
2024/04/15 21:59:53;;;;;;;7.93;3.60;;;;;;;16.99;54.90;93047.94;3682123;32;20134;-42
2024/04/15 22:02:20;;;;;;;8.68;3.50;;;;;;;17.04;54.94;93044.34;3635343;32;20130;-42
2024/04/15 22:04:47;;;;;;;6.85;3.78;;;;;;;17.00;55.45;93044.13;3673073;32;20138;-42
2024/04/15 22:07:14;;;;;;;8.00;3.95;;;;;;;16.85;55.30;93039.84;3683223;32;20147;-46
2024/04/15 22:09:41;;;;;;;9.98;4.75;;;;;;;16.94;55.48;93045.34;3654666;32;20511;-43
2024/04/15 22:12:09;;;;;;;7.95;4.30;;;;;;;16.94;55.63;93029.19;3649373;32;20460;-45
2024/04/15 22:14:36;;;;;;;6.82;4.30;;;;;;;16.72;55.75;93054.09;3679185;32;20126;-43
2024/04/15 22:17:03;;;;;;;6.88;4.13;;;;;;;16.71;56.71;93049.81;3615918;32;20126;-42
2024/04/15 22:19:30;;;;;;;9.77;4.47;;;;;;;16.42;57.02;93061.66;3659610;32;20485;-43
2024/04/15 22:21:57;;;;;;;8.50;3.85;;;;;;;16.37;58.06;93050.22;3672242;32;20129;-42
2024/04/15 22:24:24;;;;;;;9.27;3.38;;;;;;;16.29;57.83;93063.22;3685600;32;20600;-45
2024/04/15 22:26:52;;;;;;;8.18;4.55;;;;;;;16.40;58.08;93057.66;3643202;32;20466;-43
2024/04/15 22:29:19;;;;;;;7.40;4.65;;;;;;;16.10;58.30;93055.22;3663613;32;20157;-42
2024/04/15 22:31:46;;;;;;;8.02;4.28;;;;;;;16.27;57.82;93041.22;3650680;32;20125;-46
2024/04/15 22:34:14;;;;;;;7.18;3.53;;;;;;;16.14;58.43;93044.69;3646205;32;20130;-46
2024/04/15 22:36:41;;;;;;;8.27;3.30;;;;;;;16.26;58.48;93034.25;3649760;32;20469;-44
2024/04/15 22:39:08;;;;;;;9.15;3.88;;;;;;;16.32;58.31;93034.94;3652015;32;20146;-42
2024/04/15 22:41:35;;;;;;;6.85;3.88;;;;;;;16.31;58.48;93042.22;3681258;32;20137;-43
2024/04/15 22:44:03;;;;;;;8.25;3.80;;;;;;;16.26;58.55;93036.94;3648500;32;20146;-46
2024/04/15 22:46:30;;;;;;;6.70;3.75;;;;;;;16.33;58.05;93037.34;3659152;32;20193;-42
2024/04/15 22:48:59;;;;;;;7.30;4.10;;;;;;;16.37;58.07;93026.00;3624613;32;20485;-42
2024/04/15 22:51:37;;;;;;;7.35;3.72;;;;;;;15.93;59.39;93031.59;3631709;32;20181;-43
2024/04/15 22:54:04;;;;;;;7.25;3.00;;;;;;;16.12;59.43;93018.09;3635575;32;20560;-44
2024/04/15 22:56:31;;;;;;;5.72;3.42;;;;;;;16.13;58.85;93022.41;3668214;32;20138;-43
2024/04/15 22:58:58;;;;;;;6.68;3.40;;;;;;;16.20;59.23;93015.84;3666746;32;20134;-45
2024/04/15 23:01:27;;;;;;;7.30;3.30;;;;;;;16.13;59.30;93024.28;3669973;32;20126;-43
2024/04/15 23:03:54;;;;;;;8.93;4.05;;;;;;;16.08;59.04;93011.72;3686104;32;20130;-44
2024/04/15 23:06:22;;;;;;;6.75;3.10;;;;;;;16.04;59.61;93012.59;3614500;32;20138;-44
2024/04/15 23:08:49;;;;;;;6.22;3.28;;;;;;;15.96;59.55;93018.66;3631561;32;20138;-45
2024/04/15 23:11:16;;;;;;;6.72;3.72;;;;;;;15.63;60.56;93006.00;3631809;32;20130;-46
2024/04/15 23:13:43;;;;;;;6.72;3.45;;;;;;;15.70;60.72;93001.06;3611294;32;20126;-44
2024/04/15 23:16:11;;;;;;;9.70;4.22;;;;;;;15.61;60.53;93007.41;3615243;32;20130;-43
2024/04/15 23:18:39;;;;;;;6.78;3.00;;;;;;;15.68;59.93;92989.00;3599984;32;20142;-44
2024/04/15 23:21:07;;;;;;;6.07;3.35;;;;;;;15.70;59.94;92998.38;3679698;32;20459;-42
2024/04/15 23:23:34;;;;;;;9.20;3.67;;;;;;;15.73;60.58;92991.66;3624588;32;20471;-42
2024/04/15 23:26:01;;;;;;;5.07;2.90;;;;;;;15.60;60.62;92987.03;3620817;32;20135;-45
2024/04/15 23:28:31;;;;;;;7.03;3.92;;;;;;;15.61;59.25;92993.97;3605615;32;20214;-42
2024/04/15 23:30:59;;;;;;;6.85;3.30;;;;;;;15.71;59.37;92985.75;3673661;32;20185;-43
2024/04/15 23:33:28;;;;;;;8.32;3.63;;;;;;;15.86;59.13;92987.41;3605764;32;20572;-43
2024/04/15 23:35:55;;;;;;;6.10;3.40;;;;;;;15.99;59.04;92991.22;3617269;32;20138;-42
2024/04/15 23:38:22;;;;;;;7.00;3.08;;;;;;;15.90;59.48;92991.88;3668838;32;20131;-44
2024/04/15 23:40:49;;;;;;;8.00;3.75;;;;;;;16.00;59.70;92987.41;3667182;32;20555;-45
2024/04/15 23:43:17;;;;;;;6.50;3.42;;;;;;;16.11;59.49;92981.56;3634098;32;20597;-44
2024/04/15 23:46:02;;;;;;;7.53;4.60;;;;;;;15.96;59.41;92987.22;3612119;32;20130;-42
2024/04/15 23:48:48;;;;;;;5.57;3.42;;;;;;;16.05;59.68;92998.88;3629273;32;20139;-42
2024/04/15 23:51:34;;;;;;;7.07;3.40;;;;;;;16.19;59.25;93001.56;3662030;32;20481;-52
2024/04/15 23:54:19;;;;;;;8.45;6.10;;;;;;;15.83;59.59;93001.41;3659298;32;20538;-42
2024/04/15 23:57:05;;;;;;;5.90;3.40;;;;;;;16.05;59.51;93006.94;3602828;39;20139;-43
2024/04/15 23:59:32;;;;;;;5.88;3.65;;;;;;;15.97;59.45;93004.16;3603128;32;20126;-47
